sensor_id;sensor_type;location;lat;lon;timestamp;temperature;humidity
17851;DHT22;9051;51.548;14.348;2023-04-25T00:01:20;9.10;99.90
17851;DHT22;9051;51.548;14.348;2023-04-25T00:03:52;9.10;99.90
17851;DHT22;9051;51.548;14.348;2023-04-25T00:06:24;9.10;99.90
17851;DHT22;9051;51.548;14.348;2023-04-25T00:08:57;9.00;99.90
17851;DHT22;9051;51.548;14.348;2023-04-25T00:11:29;9.00;99.90
17851;DHT22;9051;51.548;14.348;2023-04-25T00:14:01;9.00;99.90
17851;DHT22;9051;51.548;14.348;2023-04-25T00:16:35;9.00;99.90
17851;DHT22;9051;51.548;14.348;2023-04-25T00:19:07;8.90;99.90
17851;DHT22;9051;51.548;14.348;2023-04-25T00:21:40;8.90;99.90
17851;DHT22;9051;51.548;14.348;2023-04-25T00:24:12;8.80;99.90
17851;DHT22;9051;51.548;14.348;2023-04-25T00:26:44;8.80;99.90
17851;DHT22;9051;51.548;14.348;2023-04-25T00:29:16;8.80;99.90
17851;DHT22;9051;51.548;14.348;2023-04-25T00:31:49;8.70;99.90
17851;DHT22;9051;51.548;14.348;2023-04-25T00:34:21;8.70;99.90
17851;DHT22;9051;51.548;14.348;2023-04-25T00:36:53;8.70;99.90
17851;DHT22;9051;51.548;14.348;2023-04-25T00:39:25;8.60;99.90
17851;DHT22;9051;51.548;14.348;2023-04-25T00:41:58;8.60;99.90
17851;DHT22;9051;51.548;14.348;2023-04-25T00:44:31;8.70;99.90
17851;DHT22;9051;51.548;14.348;2023-04-25T00:47:05;8.60;99.90
17851;DHT22;9051;51.548;14.348;2023-04-25T00:49:37;8.60;99.90
17851;DHT22;9051;51.548;14.348;2023-04-25T00:52:09;8.60;99.90
17851;DHT22;9051;51.548;14.348;2023-04-25T00:54:41;8.60;99.90
17851;DHT22;9051;51.548;14.348;2023-04-25T00:57:13;8.50;99.90
17851;DHT22;9051;51.548;14.348;2023-04-25T00:59:46;8.50;99.90
17851;DHT22;9051;51.548;14.348;2023-04-25T01:02:20;8.50;99.90
17851;DHT22;9051;51.548;14.348;2023-04-25T01:04:52;8.40;99.90
17851;DHT22;9051;51.548;14.348;2023-04-25T01:07:24;8.30;99.90
17851;DHT22;9051;51.548;14.348;2023-04-25T01:09:56;8.30;99.90
17851;DHT22;9051;51.548;14.348;2023-04-25T01:12:29;8.30;99.90
17851;DHT22;9051;51.548;14.348;2023-04-25T01:15:01;8.20;99.90
17851;DHT22;9051;51.548;14.348;2023-04-25T01:17:35;8.20;99.90
17851;DHT22;9051;51.548;14.348;2023-04-25T01:20:08;8.20;99.90
17851;DHT22;9051;51.548;14.348;2023-04-25T01:22:42;8.20;99.90
17851;DHT22;9051;51.548;14.348;2023-04-25T01:25:14;8.20;99.90
17851;DHT22;9051;51.548;14.348;2023-04-25T01:27:46;8.10;99.90
17851;DHT22;9051;51.548;14.348;2023-04-25T01:30:19;8.10;99.90
17851;DHT22;9051;51.548;14.348;2023-04-25T01:32:51;8.10;99.90
17851;DHT22;9051;51.548;14.348;2023-04-25T01:35:26;8.10;99.90
17851;DHT22;9051;51.548;14.348;2023-04-25T01:38:00;8.00;99.90
17851;DHT22;9051;51.548;14.348;2023-04-25T01:40:33;8.00;99.90
17851;DHT22;9051;51.548;14.348;2023-04-25T01:43:06;8.10;99.90
17851;DHT22;9051;51.548;14.348;2023-04-25T01:45:39;8.00;99.90
17851;DHT22;9051;51.548;14.348;2023-04-25T01:48:13;8.00;99.90
17851;DHT22;9051;51.548;14.348;2023-04-25T01:50:47;8.00;99.90
17851;DHT22;9051;51.548;14.348;2023-04-25T01:53:21;8.00;99.90
17851;DHT22;9051;51.548;14.348;2023-04-25T01:55:53;7.90;99.90
17851;DHT22;9051;51.548;14.348;2023-04-25T01:58:27;7.80;99.90
17851;DHT22;9051;51.548;14.348;2023-04-25T02:01:02;7.70;99.90
17851;DHT22;9051;51.548;14.348;2023-04-25T02:03:41;7.70;99.90
17851;DHT22;9051;51.548;14.348;2023-04-25T02:06:21;7.60;99.90
17851;DHT22;9051;51.548;14.348;2023-04-25T02:08:57;7.60;99.90
17851;DHT22;9051;51.548;14.348;2023-04-25T02:11:29;7.60;99.90
17851;DHT22;9051;51.548;14.348;2023-04-25T02:14:20;7.60;99.90
17851;DHT22;9051;51.548;14.348;2023-04-25T02:17:03;7.50;99.90
17851;DHT22;9051;51.548;14.348;2023-04-25T02:19:36;7.50;99.90
17851;DHT22;9051;51.548;14.348;2023-04-25T02:22:08;7.40;99.90
17851;DHT22;9051;51.548;14.348;2023-04-25T02:24:42;7.40;99.90
17851;DHT22;9051;51.548;14.348;2023-04-25T02:27:14;7.40;99.90
17851;DHT22;9051;51.548;14.348;2023-04-25T02:29:46;7.30;99.90
17851;DHT22;9051;51.548;14.348;2023-04-25T02:32:18;7.30;99.90
17851;DHT22;9051;51.548;14.348;2023-04-25T02:34:51;7.30;99.90
17851;DHT22;9051;51.548;14.348;2023-04-25T02:37:24;7.30;99.90
17851;DHT22;9051;51.548;14.348;2023-04-25T02:39:57;7.30;99.90
17851;DHT22;9051;51.548;14.348;2023-04-25T02:42:30;7.40;99.90
17851;DHT22;9051;51.548;14.348;2023-04-25T02:45:02;7.40;99.90
17851;DHT22;9051;51.548;14.348;2023-04-25T02:47:34;7.40;99.90
17851;DHT22;9051;51.548;14.348;2023-04-25T02:50:07;7.50;99.90
17851;DHT22;9051;51.548;14.348;2023-04-25T02:52:39;7.40;99.90
17851;DHT22;9051;51.548;14.348;2023-04-25T02:55:21;7.40;99.90
17851;DHT22;9051;51.548;14.348;2023-04-25T02:57:53;7.50;99.90
17851;DHT22;9051;51.548;14.348;2023-04-25T03:00:38;7.50;99.90
17851;DHT22;9051;51.548;14.348;2023-04-25T03:03:11;7.50;99.90
17851;DHT22;9051;51.548;14.348;2023-04-25T03:05:43;7.50;99.90
17851;DHT22;9051;51.548;14.348;2023-04-25T03:08:15;7.50;99.90
17851;DHT22;9051;51.548;14.348;2023-04-25T03:10:49;7.60;99.90
17851;DHT22;9051;51.548;14.348;2023-04-25T03:13:23;7.60;99.90
17851;DHT22;9051;51.548;14.348;2023-04-25T03:15:55;7.50;99.90
17851;DHT22;9051;51.548;14.348;2023-04-25T03:18:27;7.60;99.90
17851;DHT22;9051;51.548;14.348;2023-04-25T03:20:59;7.50;99.90
17851;DHT22;9051;51.548;14.348;2023-04-25T03:23:31;7.50;99.90
17851;DHT22;9051;51.548;14.348;2023-04-25T03:26:05;7.50;99.90
17851;DHT22;9051;51.548;14.348;2023-04-25T03:28:37;7.50;99.90
17851;DHT22;9051;51.548;14.348;2023-04-25T03:31:11;7.50;99.90
17851;DHT22;9051;51.548;14.348;2023-04-25T03:33:44;7.40;99.90
17851;DHT22;9051;51.548;14.348;2023-04-25T03:36:16;7.50;99.90
17851;DHT22;9051;51.548;14.348;2023-04-25T03:38:48;7.50;99.90
17851;DHT22;9051;51.548;14.348;2023-04-25T03:41:23;7.50;99.90
17851;DHT22;9051;51.548;14.348;2023-04-25T03:44:07;7.50;99.90
17851;DHT22;9051;51.548;14.348;2023-04-25T03:46:39;7.40;99.90
17851;DHT22;9051;51.548;14.348;2023-04-25T03:49:11;7.40;99.90
17851;DHT22;9051;51.548;14.348;2023-04-25T03:52:02;7.30;99.90
17851;DHT22;9051;51.548;14.348;2023-04-25T03:54:39;7.30;99.90
17851;DHT22;9051;51.548;14.348;2023-04-25T03:57:16;7.30;99.90
17851;DHT22;9051;51.548;14.348;2023-04-25T03:59:48;7.30;99.90
17851;DHT22;9051;51.548;14.348;2023-04-25T04:02:20;7.20;99.90
17851;DHT22;9051;51.548;14.348;2023-04-25T04:04:53;7.20;99.90
17851;DHT22;9051;51.548;14.348;2023-04-25T04:07:26;7.20;99.90
17851;DHT22;9051;51.548;14.348;2023-04-25T04:10:01;7.20;99.90
17851;DHT22;9051;51.548;14.348;2023-04-25T04:12:41;7.20;99.90
17851;DHT22;9051;51.548;14.348;2023-04-25T04:15:13;7.10;99.90
17851;DHT22;9051;51.548;14.348;2023-04-25T04:17:48;7.10;99.90
17851;DHT22;9051;51.548;14.348;2023-04-25T04:20:21;7.00;99.90
17851;DHT22;9051;51.548;14.348;2023-04-25T04:23:09;7.10;99.90
17851;DHT22;9051;51.548;14.348;2023-04-25T04:25:41;7.10;99.90
17851;DHT22;9051;51.548;14.348;2023-04-25T04:28:33;7.10;99.90
17851;DHT22;9051;51.548;14.348;2023-04-25T04:31:15;7.10;99.90
17851;DHT22;9051;51.548;14.348;2023-04-25T04:33:48;7.10;99.90
17851;DHT22;9051;51.548;14.348;2023-04-25T04:36:21;7.10;99.90
17851;DHT22;9051;51.548;14.348;2023-04-25T04:38:54;7.10;99.90
17851;DHT22;9051;51.548;14.348;2023-04-25T04:41:42;7.20;99.90
17851;DHT22;9051;51.548;14.348;2023-04-25T04:44:38;7.20;99.90
17851;DHT22;9051;51.548;14.348;2023-04-25T04:47:42;7.20;99.90
17851;DHT22;9051;51.548;14.348;2023-04-25T04:50:35;7.20;99.90
17851;DHT22;9051;51.548;14.348;2023-04-25T04:53:25;7.30;99.90
17851;DHT22;9051;51.548;14.348;2023-04-25T04:56:33;7.30;99.90
17851;DHT22;9051;51.548;14.348;2023-04-25T04:59:24;7.30;99.90
17851;DHT22;9051;51.548;14.348;2023-04-25T05:02:11;7.30;99.90
17851;DHT22;9051;51.548;14.348;2023-04-25T05:04:55;7.30;99.90
17851;DHT22;9051;51.548;14.348;2023-04-25T05:07:40;7.40;99.90
17851;DHT22;9051;51.548;14.348;2023-04-25T05:10:48;7.50;99.90
17851;DHT22;9051;51.548;14.348;2023-04-25T05:13:43;7.50;99.90
17851;DHT22;9051;51.548;14.348;2023-04-25T05:16:40;7.60;99.90
17851;DHT22;9051;51.548;14.348;2023-04-25T05:19:27;7.70;99.90
17851;DHT22;9051;51.548;14.348;2023-04-25T05:22:25;7.80;99.90
17851;DHT22;9051;51.548;14.348;2023-04-25T05:25:14;7.90;99.90
17851;DHT22;9051;51.548;14.348;2023-04-25T05:28:01;7.90;99.90
17851;DHT22;9051;51.548;14.348;2023-04-25T05:30:53;8.00;99.90
17851;DHT22;9051;51.548;14.348;2023-04-25T05:33:32;8.10;99.90
17851;DHT22;9051;51.548;14.348;2023-04-25T05:36:07;8.10;99.90
17851;DHT22;9051;51.548;14.348;2023-04-25T05:38:39;8.30;99.90
17851;DHT22;9051;51.548;14.348;2023-04-25T05:41:26;8.20;99.90
17851;DHT22;9051;51.548;14.348;2023-04-25T05:44:16;8.20;99.90
17851;DHT22;9051;51.548;14.348;2023-04-25T05:46:54;8.20;99.90
17851;DHT22;9051;51.548;14.348;2023-04-25T05:49:35;8.30;99.90
17851;DHT22;9051;51.548;14.348;2023-04-25T05:52:44;8.30;99.90
17851;DHT22;9051;51.548;14.348;2023-04-25T05:55:28;8.40;99.90
17851;DHT22;9051;51.548;14.348;2023-04-25T05:58:04;8.50;99.90
17851;DHT22;9051;51.548;14.348;2023-04-25T06:00:36;8.50;99.90
17851;DHT22;9051;51.548;14.348;2023-04-25T06:03:08;8.50;99.90
17851;DHT22;9051;51.548;14.348;2023-04-25T06:05:41;8.60;99.90
17851;DHT22;9051;51.548;14.348;2023-04-25T06:08:14;8.70;99.90
17851;DHT22;9051;51.548;14.348;2023-04-25T06:10:47;8.70;99.90
17851;DHT22;9051;51.548;14.348;2023-04-25T06:13:19;8.70;99.90
17851;DHT22;9051;51.548;14.348;2023-04-25T06:15:51;8.70;99.90
17851;DHT22;9051;51.548;14.348;2023-04-25T06:18:23;8.80;99.90
17851;DHT22;9051;51.548;14.348;2023-04-25T06:20:57;8.90;99.90
17851;DHT22;9051;51.548;14.348;2023-04-25T06:23:31;9.00;99.90
17851;DHT22;9051;51.548;14.348;2023-04-25T06:26:08;9.10;99.90
17851;DHT22;9051;51.548;14.348;2023-04-25T06:28:43;9.20;99.90
17851;DHT22;9051;51.548;14.348;2023-04-25T06:31:15;9.20;99.90
17851;DHT22;9051;51.548;14.348;2023-04-25T06:33:49;9.20;99.90
17851;DHT22;9051;51.548;14.348;2023-04-25T06:36:21;9.30;99.90
17851;DHT22;9051;51.548;14.348;2023-04-25T06:38:59;9.30;99.90
17851;DHT22;9051;51.548;14.348;2023-04-25T06:41:31;9.30;99.90
17851;DHT22;9051;51.548;14.348;2023-04-25T06:44:06;9.40;99.90
17851;DHT22;9051;51.548;14.348;2023-04-25T06:46:44;9.50;99.90
17851;DHT22;9051;51.548;14.348;2023-04-25T06:49:20;9.60;99.90
17851;DHT22;9051;51.548;14.348;2023-04-25T06:51:51;9.70;99.90
17851;DHT22;9051;51.548;14.348;2023-04-25T06:54:25;9.70;99.90
17851;DHT22;9051;51.548;14.348;2023-04-25T06:57:06;9.70;99.90
17851;DHT22;9051;51.548;14.348;2023-04-25T06:59:41;9.70;99.90
17851;DHT22;9051;51.548;14.348;2023-04-25T07:02:13;9.80;99.90
17851;DHT22;9051;51.548;14.348;2023-04-25T07:04:46;9.90;99.90
17851;DHT22;9051;51.548;14.348;2023-04-25T07:07:19;9.90;99.90
17851;DHT22;9051;51.548;14.348;2023-04-25T07:09:59;10.00;99.90
17851;DHT22;9051;51.548;14.348;2023-04-25T07:12:31;10.00;99.90
17851;DHT22;9051;51.548;14.348;2023-04-25T07:15:04;10.20;99.90
17851;DHT22;9051;51.548;14.348;2023-04-25T07:17:44;10.40;99.90
17851;DHT22;9051;51.548;14.348;2023-04-25T07:20:16;10.40;99.90
17851;DHT22;9051;51.548;14.348;2023-04-25T07:22:49;10.50;99.90
17851;DHT22;9051;51.548;14.348;2023-04-25T07:25:23;10.50;99.90
17851;DHT22;9051;51.548;14.348;2023-04-25T07:27:57;10.50;99.90
17851;DHT22;9051;51.548;14.348;2023-04-25T07:30:28;10.60;99.90
17851;DHT22;9051;51.548;14.348;2023-04-25T07:33:01;10.60;99.90
17851;DHT22;9051;51.548;14.348;2023-04-25T07:35:33;10.50;99.90
17851;DHT22;9051;51.548;14.348;2023-04-25T07:38:05;10.60;99.90
17851;DHT22;9051;51.548;14.348;2023-04-25T07:40:40;10.60;99.90
17851;DHT22;9051;51.548;14.348;2023-04-25T07:43:14;10.70;99.90
17851;DHT22;9051;51.548;14.348;2023-04-25T07:46:00;10.80;99.90
17851;DHT22;9051;51.548;14.348;2023-04-25T07:48:36;10.80;99.90
17851;DHT22;9051;51.548;14.348;2023-04-25T07:51:08;10.80;99.90
17851;DHT22;9051;51.548;14.348;2023-04-25T07:53:41;10.90;99.90
17851;DHT22;9051;51.548;14.348;2023-04-25T07:56:18;10.90;99.90
17851;DHT22;9051;51.548;14.348;2023-04-25T07:58:52;10.90;99.90
17851;DHT22;9051;51.548;14.348;2023-04-25T08:01:26;10.90;99.90
17851;DHT22;9051;51.548;14.348;2023-04-25T08:04:05;10.90;99.90
17851;DHT22;9051;51.548;14.348;2023-04-25T08:06:53;11.00;99.90
17851;DHT22;9051;51.548;14.348;2023-04-25T08:09:29;11.30;99.90
17851;DHT22;9051;51.548;14.348;2023-04-25T08:12:09;11.50;99.90
17851;DHT22;9051;51.548;14.348;2023-04-25T08:14:41;11.70;99.90
17851;DHT22;9051;51.548;14.348;2023-04-25T08:17:13;11.80;99.90
17851;DHT22;9051;51.548;14.348;2023-04-25T08:19:46;11.90;99.90
17851;DHT22;9051;51.548;14.348;2023-04-25T08:22:29;11.90;99.90
17851;DHT22;9051;51.548;14.348;2023-04-25T08:25:24;11.80;99.90
17851;DHT22;9051;51.548;14.348;2023-04-25T08:27:57;11.60;99.90
17851;DHT22;9051;51.548;14.348;2023-04-25T08:30:30;11.60;99.90
17851;DHT22;9051;51.548;14.348;2023-04-25T08:33:02;11.60;99.90
17851;DHT22;9051;51.548;14.348;2023-04-25T08:35:52;11.50;99.90
17851;DHT22;9051;51.548;14.348;2023-04-25T08:38:24;11.50;99.90
17851;DHT22;9051;51.548;14.348;2023-04-25T08:41:00;11.50;99.90
17851;DHT22;9051;51.548;14.348;2023-04-25T08:43:34;11.50;99.90
17851;DHT22;9051;51.548;14.348;2023-04-25T08:46:08;11.50;99.90
17851;DHT22;9051;51.548;14.348;2023-04-25T08:48:48;11.50;99.90
17851;DHT22;9051;51.548;14.348;2023-04-25T08:51:23;11.50;99.90
17851;DHT22;9051;51.548;14.348;2023-04-25T08:54:03;11.50;99.90
17851;DHT22;9051;51.548;14.348;2023-04-25T08:56:41;11.40;99.90
17851;DHT22;9051;51.548;14.348;2023-04-25T08:59:19;11.50;99.90
17851;DHT22;9051;51.548;14.348;2023-04-25T09:01:52;11.50;99.90
17851;DHT22;9051;51.548;14.348;2023-04-25T09:04:26;11.50;99.90
17851;DHT22;9051;51.548;14.348;2023-04-25T09:06:59;11.80;99.90
17851;DHT22;9051;51.548;14.348;2023-04-25T09:09:31;11.90;99.90
17851;DHT22;9051;51.548;14.348;2023-04-25T09:12:03;11.80;99.90
17851;DHT22;9051;51.548;14.348;2023-04-25T09:14:39;11.70;99.90
17851;DHT22;9051;51.548;14.348;2023-04-25T09:17:22;11.60;99.90
17851;DHT22;9051;51.548;14.348;2023-04-25T09:20:06;11.50;99.90
17851;DHT22;9051;51.548;14.348;2023-04-25T09:22:39;11.70;99.90
17851;DHT22;9051;51.548;14.348;2023-04-25T09:25:13;11.80;99.90
17851;DHT22;9051;51.548;14.348;2023-04-25T09:27:50;11.80;99.90
17851;DHT22;9051;51.548;14.348;2023-04-25T09:30:33;11.70;99.90
17851;DHT22;9051;51.548;14.348;2023-04-25T09:33:11;11.50;99.90
17851;DHT22;9051;51.548;14.348;2023-04-25T09:35:46;11.50;99.90
17851;DHT22;9051;51.548;14.348;2023-04-25T09:38:45;11.60;99.90
17851;DHT22;9051;51.548;14.348;2023-04-25T09:41:25;11.50;99.90
17851;DHT22;9051;51.548;14.348;2023-04-25T09:44:00;11.60;99.90
17851;DHT22;9051;51.548;14.348;2023-04-25T09:46:40;11.50;99.90
17851;DHT22;9051;51.548;14.348;2023-04-25T09:49:25;11.60;99.90
17851;DHT22;9051;51.548;14.348;2023-04-25T09:52:09;11.50;99.90
17851;DHT22;9051;51.548;14.348;2023-04-25T09:54:50;11.40;99.90
17851;DHT22;9051;51.548;14.348;2023-04-25T09:57:30;11.50;99.90
17851;DHT22;9051;51.548;14.348;2023-04-25T10:00:04;11.80;99.90
17851;DHT22;9051;51.548;14.348;2023-04-25T10:02:47;12.10;99.90
17851;DHT22;9051;51.548;14.348;2023-04-25T10:05:43;12.40;99.90
17851;DHT22;9051;51.548;14.348;2023-04-25T10:08:16;12.50;99.90
17851;DHT22;9051;51.548;14.348;2023-04-25T10:10:49;12.60;99.90
17851;DHT22;9051;51.548;14.348;2023-04-25T10:13:21;12.80;99.90
17851;DHT22;9051;51.548;14.348;2023-04-25T10:15:55;12.80;99.90
17851;DHT22;9051;51.548;14.348;2023-04-25T10:18:30;12.70;99.90
17851;DHT22;9051;51.548;14.348;2023-04-25T10:21:04;12.60;99.90
17851;DHT22;9051;51.548;14.348;2023-04-25T10:23:37;12.40;99.90
17851;DHT22;9051;51.548;14.348;2023-04-25T10:26:09;12.20;99.90
17851;DHT22;9051;51.548;14.348;2023-04-25T10:28:56;12.10;99.90
17851;DHT22;9051;51.548;14.348;2023-04-25T10:31:29;11.90;99.90
17851;DHT22;9051;51.548;14.348;2023-04-25T10:34:06;11.90;99.90
17851;DHT22;9051;51.548;14.348;2023-04-25T10:36:39;11.90;99.90
17851;DHT22;9051;51.548;14.348;2023-04-25T10:39:11;11.90;99.90
17851;DHT22;9051;51.548;14.348;2023-04-25T10:41:47;12.00;99.90
17851;DHT22;9051;51.548;14.348;2023-04-25T10:44:19;12.00;99.90
17851;DHT22;9051;51.548;14.348;2023-04-25T10:46:51;12.10;99.90
17851;DHT22;9051;51.548;14.348;2023-04-25T10:49:32;12.30;99.90
17851;DHT22;9051;51.548;14.348;2023-04-25T10:52:12;12.50;99.90
17851;DHT22;9051;51.548;14.348;2023-04-25T10:54:48;12.50;99.90
17851;DHT22;9051;51.548;14.348;2023-04-25T10:57:36;12.60;99.90
17851;DHT22;9051;51.548;14.348;2023-04-25T11:00:11;12.60;99.90
17851;DHT22;9051;51.548;14.348;2023-04-25T11:02:45;12.70;99.90
17851;DHT22;9051;51.548;14.348;2023-04-25T11:05:22;12.70;99.90
17851;DHT22;9051;51.548;14.348;2023-04-25T11:07:58;12.60;99.90
17851;DHT22;9051;51.548;14.348;2023-04-25T11:10:31;12.60;99.90
17851;DHT22;9051;51.548;14.348;2023-04-25T11:13:03;12.50;99.90
17851;DHT22;9051;51.548;14.348;2023-04-25T11:15:35;12.20;99.90
17851;DHT22;9051;51.548;14.348;2023-04-25T11:18:08;11.60;99.90
17851;DHT22;9051;51.548;14.348;2023-04-25T11:20:43;11.00;99.90
17851;DHT22;9051;51.548;14.348;2023-04-25T11:23:16;10.70;99.90
17851;DHT22;9051;51.548;14.348;2023-04-25T11:25:49;10.70;99.90
17851;DHT22;9051;51.548;14.348;2023-04-25T11:28:22;10.70;99.90
17851;DHT22;9051;51.548;14.348;2023-04-25T11:30:54;10.70;99.90
17851;DHT22;9051;51.548;14.348;2023-04-25T11:33:26;10.80;99.90
17851;DHT22;9051;51.548;14.348;2023-04-25T11:36:00;10.90;99.90
17851;DHT22;9051;51.548;14.348;2023-04-25T11:38:32;11.00;99.90
17851;DHT22;9051;51.548;14.348;2023-04-25T11:41:04;10.90;99.90
17851;DHT22;9051;51.548;14.348;2023-04-25T11:43:36;10.70;99.90
17851;DHT22;9051;51.548;14.348;2023-04-25T11:46:08;10.50;99.90
17851;DHT22;9051;51.548;14.348;2023-04-25T11:48:41;10.30;99.90
17851;DHT22;9051;51.548;14.348;2023-04-25T11:51:15;10.20;99.90
17851;DHT22;9051;51.548;14.348;2023-04-25T11:53:47;10.20;99.90
17851;DHT22;9051;51.548;14.348;2023-04-25T11:56:20;10.30;99.90
17851;DHT22;9051;51.548;14.348;2023-04-25T11:58:57;10.50;99.90
17851;DHT22;9051;51.548;14.348;2023-04-25T12:01:30;10.80;99.90
17851;DHT22;9051;51.548;14.348;2023-04-25T12:04:12;11.20;99.90
17851;DHT22;9051;51.548;14.348;2023-04-25T12:06:47;11.70;99.90
17851;DHT22;9051;51.548;14.348;2023-04-25T12:09:21;11.70;99.90
17851;DHT22;9051;51.548;14.348;2023-04-25T12:11:55;11.60;99.90
17851;DHT22;9051;51.548;14.348;2023-04-25T12:14:28;11.50;99.90
17851;DHT22;9051;51.548;14.348;2023-04-25T12:17:02;11.60;99.90
17851;DHT22;9051;51.548;14.348;2023-04-25T12:19:35;11.60;99.90
17851;DHT22;9051;51.548;14.348;2023-04-25T12:22:21;11.50;99.90
17851;DHT22;9051;51.548;14.348;2023-04-25T12:25:02;11.50;99.90
17851;DHT22;9051;51.548;14.348;2023-04-25T12:27:36;11.40;99.90
17851;DHT22;9051;51.548;14.348;2023-04-25T12:30:08;11.20;99.90
17851;DHT22;9051;51.548;14.348;2023-04-25T12:32:41;11.00;99.90
17851;DHT22;9051;51.548;14.348;2023-04-25T12:35:13;11.10;99.90
17851;DHT22;9051;51.548;14.348;2023-04-25T12:37:46;11.10;99.90
17851;DHT22;9051;51.548;14.348;2023-04-25T12:40:19;11.00;99.90
17851;DHT22;9051;51.548;14.348;2023-04-25T12:42:50;10.80;99.90
17851;DHT22;9051;51.548;14.348;2023-04-25T12:45:23;10.80;99.90
17851;DHT22;9051;51.548;14.348;2023-04-25T12:47:55;10.90;99.90
17851;DHT22;9051;51.548;14.348;2023-04-25T12:50:26;10.90;99.90
17851;DHT22;9051;51.548;14.348;2023-04-25T12:53:00;10.90;99.90
17851;DHT22;9051;51.548;14.348;2023-04-25T12:55:32;10.70;99.90
17851;DHT22;9051;51.548;14.348;2023-04-25T12:58:03;10.70;99.90
17851;DHT22;9051;51.548;14.348;2023-04-25T13:00:35;10.70;99.90
17851;DHT22;9051;51.548;14.348;2023-04-25T13:03:08;10.70;99.90
17851;DHT22;9051;51.548;14.348;2023-04-25T13:05:41;10.90;99.90
17851;DHT22;9051;51.548;14.348;2023-04-25T13:08:15;11.00;99.90
17851;DHT22;9051;51.548;14.348;2023-04-25T13:10:47;11.10;99.90
17851;DHT22;9051;51.548;14.348;2023-04-25T13:13:19;11.10;99.90
17851;DHT22;9051;51.548;14.348;2023-04-25T13:15:51;11.00;99.90
17851;DHT22;9051;51.548;14.348;2023-04-25T13:18:23;10.80;99.90
17851;DHT22;9051;51.548;14.348;2023-04-25T13:20:57;10.60;99.90
17851;DHT22;9051;51.548;14.348;2023-04-25T13:23:32;10.60;99.90
17851;DHT22;9051;51.548;14.348;2023-04-25T13:26:04;10.50;99.90
17851;DHT22;9051;51.548;14.348;2023-04-25T13:28:36;10.40;99.90
17851;DHT22;9051;51.548;14.348;2023-04-25T13:31:08;10.40;99.90
17851;DHT22;9051;51.548;14.348;2023-04-25T13:33:39;10.30;99.90
17851;DHT22;9051;51.548;14.348;2023-04-25T13:36:11;10.10;99.90
17851;DHT22;9051;51.548;14.348;2023-04-25T13:38:45;10.20;99.90
17851;DHT22;9051;51.548;14.348;2023-04-25T13:41:18;10.20;99.90
17851;DHT22;9051;51.548;14.348;2023-04-25T13:43:50;10.40;99.90
17851;DHT22;9051;51.548;14.348;2023-04-25T13:46:22;10.50;99.90
17851;DHT22;9051;51.548;14.348;2023-04-25T13:48:54;10.70;99.90
17851;DHT22;9051;51.548;14.348;2023-04-25T13:51:26;10.70;99.90
17851;DHT22;9051;51.548;14.348;2023-04-25T13:53:59;10.50;99.90
17851;DHT22;9051;51.548;14.348;2023-04-25T13:56:32;10.60;99.90
17851;DHT22;9051;51.548;14.348;2023-04-25T13:59:04;10.60;99.90
17851;DHT22;9051;51.548;14.348;2023-04-25T14:01:36;10.70;99.90
17851;DHT22;9051;51.548;14.348;2023-04-25T14:04:08;10.70;99.90
17851;DHT22;9051;51.548;14.348;2023-04-25T14:06:40;10.60;99.90
17851;DHT22;9051;51.548;14.348;2023-04-25T14:09:14;10.70;99.90
17851;DHT22;9051;51.548;14.348;2023-04-25T14:11:46;10.60;99.90
17851;DHT22;9051;51.548;14.348;2023-04-25T14:14:19;10.60;99.90
17851;DHT22;9051;51.548;14.348;2023-04-25T14:16:51;10.60;99.90
17851;DHT22;9051;51.548;14.348;2023-04-25T14:19:24;10.80;99.90
17851;DHT22;9051;51.548;14.348;2023-04-25T14:21:56;11.00;99.90
17851;DHT22;9051;51.548;14.348;2023-04-25T14:24:30;11.20;99.90
17851;DHT22;9051;51.548;14.348;2023-04-25T14:27:03;11.40;99.90
17851;DHT22;9051;51.548;14.348;2023-04-25T14:29:35;11.50;99.90
17851;DHT22;9051;51.548;14.348;2023-04-25T14:32:07;11.60;99.90
17851;DHT22;9051;51.548;14.348;2023-04-25T14:34:40;11.60;99.90
17851;DHT22;9051;51.548;14.348;2023-04-25T14:37:12;11.60;99.90
17851;DHT22;9051;51.548;14.348;2023-04-25T14:39:46;11.60;99.90
17851;DHT22;9051;51.548;14.348;2023-04-25T14:42:18;11.50;99.90
17851;DHT22;9051;51.548;14.348;2023-04-25T14:44:50;11.50;99.90
17851;DHT22;9051;51.548;14.348;2023-04-25T14:47:22;11.50;99.90
17851;DHT22;9051;51.548;14.348;2023-04-25T14:49:54;11.50;99.90
17851;DHT22;9051;51.548;14.348;2023-04-25T14:52:26;11.50;99.90
17851;DHT22;9051;51.548;14.348;2023-04-25T14:54:59;11.40;99.90
17851;DHT22;9051;51.548;14.348;2023-04-25T14:57:35;11.60;99.90
17851;DHT22;9051;51.548;14.348;2023-04-25T15:00:08;11.60;99.90
17851;DHT22;9051;51.548;14.348;2023-04-25T15:02:40;11.60;99.90
17851;DHT22;9051;51.548;14.348;2023-04-25T15:05:13;11.50;99.90
17851;DHT22;9051;51.548;14.348;2023-04-25T15:07:45;11.50;99.90
17851;DHT22;9051;51.548;14.348;2023-04-25T15:10:19;11.60;99.90
17851;DHT22;9051;51.548;14.348;2023-04-25T15:12:51;11.90;99.90
17851;DHT22;9051;51.548;14.348;2023-04-25T15:15:24;12.30;99.90
17851;DHT22;9051;51.548;14.348;2023-04-25T15:17:57;12.30;99.90
17851;DHT22;9051;51.548;14.348;2023-04-25T15:20:29;11.90;99.90
17851;DHT22;9051;51.548;14.348;2023-04-25T15:23:01;11.60;99.90
17851;DHT22;9051;51.548;14.348;2023-04-25T15:25:36;11.20;99.90
17851;DHT22;9051;51.548;14.348;2023-04-25T15:28:08;10.90;99.90
17851;DHT22;9051;51.548;14.348;2023-04-25T15:30:40;10.80;99.90
17851;DHT22;9051;51.548;14.348;2023-04-25T15:33:12;10.70;99.90
17851;DHT22;9051;51.548;14.348;2023-04-25T15:35:45;10.70;99.90
17851;DHT22;9051;51.548;14.348;2023-04-25T15:38:17;10.80;99.90
17851;DHT22;9051;51.548;14.348;2023-04-25T15:40:51;11.10;99.90
17851;DHT22;9051;51.548;14.348;2023-04-25T15:43:23;11.30;99.90
17851;DHT22;9051;51.548;14.348;2023-04-25T15:45:56;11.20;99.90
17851;DHT22;9051;51.548;14.348;2023-04-25T15:48:27;11.10;99.90
17851;DHT22;9051;51.548;14.348;2023-04-25T15:51:00;10.90;99.90
17851;DHT22;9051;51.548;14.348;2023-04-25T15:53:32;10.80;99.90
17851;DHT22;9051;51.548;14.348;2023-04-25T15:56:05;10.70;99.90
17851;DHT22;9051;51.548;14.348;2023-04-25T15:58:37;10.60;99.90
17851;DHT22;9051;51.548;14.348;2023-04-25T16:01:10;10.60;99.90
17851;DHT22;9051;51.548;14.348;2023-04-25T16:03:42;10.50;99.90
17851;DHT22;9051;51.548;14.348;2023-04-25T16:06:14;10.50;99.90
17851;DHT22;9051;51.548;14.348;2023-04-25T16:08:46;10.50;99.90
17851;DHT22;9051;51.548;14.348;2023-04-25T16:11:19;10.50;99.90
17851;DHT22;9051;51.548;14.348;2023-04-25T16:13:51;10.50;99.90
17851;DHT22;9051;51.548;14.348;2023-04-25T16:16:23;10.50;99.90
17851;DHT22;9051;51.548;14.348;2023-04-25T16:18:56;10.50;99.90
17851;DHT22;9051;51.548;14.348;2023-04-25T16:21:28;10.60;99.90
17851;DHT22;9051;51.548;14.348;2023-04-25T16:24:01;10.70;99.90
17851;DHT22;9051;51.548;14.348;2023-04-25T16:26:35;10.50;99.90
17851;DHT22;9051;51.548;14.348;2023-04-25T16:29:07;10.50;99.90